Time;durP1;ratioP1;P1;durP2;ratioP2;P2;SDS_P1;SDS_P2;PMS_P1;PMS_P2;Temp;Humidity;BMP_temperature;BMP_pressure;BME280_temperature;BME280_humidity;BME280_pressure;Samples;Min_cycle;Max_cycle;Signal;HPM_P1;HPM_P2
2021/04/26 00:01:06;;;;;;;;;;;6.70;67.90;;;5.48;48.39;95876.53;10426698;28;1973;-83
2021/04/26 00:06:07;;;;;;;;;;;6.60;68.30;;;5.34;49.11;95877.84;10420619;28;1940;-84
2021/04/26 00:11:09;;;;;;;;;;;6.40;68.90;;;5.21;50.47;95862.94;10405850;28;1874;-85
2021/04/26 00:16:14;;;;;;;;;;;6.30;70.10;;;5.04;50.64;95865.56;10409289;28;2000;-83
2021/04/26 00:21:16;;;;;;;;;;;6.10;70.80;;;4.87;51.37;95851.34;10423913;28;1814;-82
2021/04/26 00:26:18;;;;;;;;;;;6.00;71.40;;;4.73;52.37;95840.16;10427701;28;1858;-82
2021/04/26 00:31:20;;;;;;;;;;;5.80;72.00;;;4.64;53.11;95836.22;10433188;28;1892;-84
2021/04/26 00:36:22;;;;;;;;;;;5.70;72.90;;;4.57;53.31;95823.03;10452109;28;1890;-80
2021/04/26 00:41:24;;;;;;;;;;;5.60;73.30;;;4.48;53.83;95815.66;10425718;28;2002;-84
2021/04/26 00:46:26;;;;;;;;;;;5.50;73.80;;;4.41;54.11;95804.34;10397760;28;2465;-84
2021/04/26 00:51:27;;;;;;;;;;;5.50;74.60;;;4.30;54.60;95790.78;10414581;28;1983;-83
2021/04/26 00:56:29;;;;;;;;;;;5.80;75.40;;;4.24;54.81;95786.41;10401426;28;2020;-83
2021/04/26 01:01:31;;;;;;;;;;;5.30;75.50;;;4.19;55.67;95775.66;10431849;28;1978;-81
2021/04/26 01:06:34;;;;;;;;;;;6.40;76.50;;;4.16;55.70;95781.44;10385468;28;3283;-82
2021/04/26 01:11:39;;;;;;;;;;;6.90;77.20;;;4.03;55.60;95774.53;10425956;28;2314;-83
2021/04/26 01:16:41;;;;;;;;;;;5.10;76.60;;;3.90;57.02;95776.59;10413631;28;2131;-83
2021/04/26 01:21:43;;;;;;;;;;;5.50;77.50;;;3.84;57.34;95767.69;10431994;28;2400;-83
2021/04/26 01:26:44;;;;;;;;;;;5.20;77.60;;;3.85;57.22;95777.28;10436686;28;2150;-84
2021/04/26 01:31:46;;;;;;;;;;;6.00;78.40;;;3.78;57.49;95769.44;10436070;28;2098;-83
2021/04/26 01:36:48;;;;;;;;;;;4.80;78.40;;;3.71;58.32;95763.41;10444607;28;1952;-83
2021/04/26 01:41:50;;;;;;;;;;;6.20;79.50;;;3.60;58.74;95766.06;10455727;28;2168;-83
2021/04/26 01:46:52;;;;;;;;;;;6.30;80.20;;;3.48;59.35;95750.91;10442474;28;2104;-83
2021/04/26 01:51:54;;;;;;;;;;;5.00;80.10;;;3.45;59.77;95748.72;10421055;28;2139;-83
2021/04/26 01:56:56;;;;;;;;;;;4.90;80.60;;;3.31;60.07;95746.47;10435010;28;1929;-83
2021/04/26 02:02:01;;;;;;;;;;;5.50;81.80;;;3.21;60.57;95739.09;10445891;28;2062;-84
2021/04/26 02:07:04;;;;;;;;;;;4.50;82.00;;;3.10;61.62;95730.06;10415063;28;2210;-84
2021/04/26 02:12:06;;;;;;;;;;;5.30;83.10;;;3.05;62.01;95737.88;10406633;28;1992;-82
2021/04/26 02:17:08;;;;;;;;;;;4.10;83.00;;;2.98;62.05;95737.16;10431955;28;2067;-84
2021/04/26 02:22:10;;;;;;;;;;;5.30;84.20;;;2.90;62.97;95729.53;10419994;28;1971;-80
2021/04/26 02:27:11;;;;;;;;;;;4.90;84.40;;;2.82;63.77;95741.28;10417032;28;1993;-79
2021/04/26 02:32:15;;;;;;;;;;;3.90;84.70;;;2.75;64.35;95735.25;10400884;28;2104;-83
2021/04/26 02:37:17;;;;;;;;;;;3.80;85.10;;;2.75;64.87;95742.41;10414407;28;1850;-82
2021/04/26 02:42:19;;;;;;;;;;;3.80;85.70;;;2.92;64.30;95743.38;10406671;28;2723;-83
2021/04/26 02:47:21;;;;;;;;;;;4.70;86.50;;;2.86;64.79;95725.69;10404877;28;2175;-83
2021/04/26 02:52:23;;;;;;;;;;;5.10;86.90;;;2.77;65.35;95716.44;10400872;28;2085;-84
2021/04/26 02:57:24;;;;;;;;;;;5.60;87.50;;;2.74;65.81;95708.97;10417866;28;1972;-83
2021/04/26 03:02:26;;;;;;;;;;;4.80;87.50;;;2.61;66.22;95705.44;10405865;28;2229;-84
2021/04/26 03:07:28;;;;;;;;;;;3.70;87.20;;;2.63;65.64;95702.56;10408902;28;1969;-82
2021/04/26 03:12:30;;;;;;;;;;;3.60;87.40;;;2.62;65.96;95695.63;10415438;28;2113;-83
2021/04/26 03:17:32;;;;;;;;;;;3.60;87.80;;;2.52;66.61;95690.84;10400723;28;2146;-85
2021/04/26 03:22:34;;;;;;;;;;;3.60;88.00;;;2.54;66.52;95683.47;10423267;28;1286;-84
2021/04/26 03:27:36;;;;;;;;;;;3.60;88.30;;;2.52;66.56;95672.28;10435445;28;2026;-83
2021/04/26 03:32:38;;;;;;;;;;;3.50;88.60;;;2.46;67.00;95678.50;10425565;28;2111;-82
2021/04/26 03:37:39;;;;;;;;;;;3.60;88.50;;;2.51;66.15;95670.66;10432627;28;2083;-82
2021/04/26 03:42:41;;;;;;;;;;;5.10;89.20;;;2.50;66.06;95661.09;10411410;28;2107;-84
2021/04/26 03:47:43;;;;;;;;;;;3.50;88.40;;;2.56;65.67;95660.19;10432013;28;2161;-83
2021/04/26 03:52:45;;;;;;;;;;;3.50;88.40;;;2.56;66.09;95659.38;10437089;28;1985;-85
2021/04/26 03:57:47;;;;;;;;;;;3.50;88.40;;;2.50;65.75;95655.78;10431181;28;1998;-82
2021/04/26 04:02:49;;;;;;;;;;;3.60;88.30;;;2.42;66.24;95666.72;10419712;28;2064;-82
2021/04/26 04:07:51;;;;;;;;;;;3.50;88.60;;;2.36;66.24;95654.38;10406413;28;2041;-83
2021/04/26 04:12:53;;;;;;;;;;;3.40;88.70;;;2.32;66.24;95661.94;10427740;28;2055;-83
2021/04/26 04:17:54;;;;;;;;;;;3.40;88.50;;;2.36;66.00;95652.50;10450836;28;2047;-81
2021/04/26 04:22:56;;;;;;;;;;;3.30;88.60;;;2.32;65.65;95638.06;10447685;28;2131;-82
2021/04/26 04:27:58;;;;;;;;;;;3.30;88.60;;;2.43;65.30;95633.84;10434995;28;2480;-81
2021/04/26 04:33:00;;;;;;;;;;;3.30;88.50;;;2.51;65.68;95646.78;10431767;28;2087;-79
2021/04/26 04:38:02;;;;;;;;;;;4.00;88.70;;;2.76;64.31;95653.78;10409109;28;2293;-81
2021/04/26 04:43:04;;;;;;;;;;;4.00;87.80;;;3.05;63.21;95662.72;10426651;28;1948;-80
2021/04/26 04:48:05;;;;;;;;;;;3.80;87.20;;;3.17;62.72;95655.56;10423617;28;2064;-82
2021/04/26 04:53:07;;;;;;;;;;;5.80;86.80;;;3.38;61.77;95659.53;10419868;28;2159;-83
2021/04/26 04:58:09;;;;;;;;;;;4.30;85.20;;;3.37;62.10;95672.00;10405743;28;2001;-83
2021/04/26 05:03:11;;;;;;;;;;;6.00;85.60;;;3.66;60.83;95664.94;10405212;28;1935;-83
2021/04/26 05:08:13;;;;;;;;;;;6.30;85.50;;;3.97;60.18;95654.97;10418259;28;2145;-84
2021/04/26 05:13:15;;;;;;;;;;;6.50;84.80;;;4.19;58.50;95649.78;10417872;28;2098;-84
2021/04/26 05:18:16;;;;;;;;;;;5.00;82.50;;;4.59;57.83;95647.13;10420262;28;2045;-84
2021/04/26 05:23:18;;;;;;;;;;;5.30;81.80;;;4.64;56.84;95649.84;10416332;28;2089;-83
2021/04/26 05:28:23;;;;;;;;;;;5.60;80.30;;;4.46;57.13;95648.22;10424380;28;2320;-84
2021/04/26 05:33:25;;;;;;;;;;;6.40;79.90;;;4.48;57.36;95656.75;10440325;28;2033;-80
2021/04/26 05:38:27;;;;;;;;;;;5.50;80.20;;;4.32;56.39;95649.53;10426208;28;2072;-82
2021/04/26 05:43:28;;;;;;;;;;;5.50;79.10;;;4.83;56.07;95651.25;10418556;28;1750;-80
2021/04/26 05:48:30;;;;;;;;;;;5.60;79.50;;;4.92;55.95;95637.56;10440963;28;1896;-77
2021/04/26 05:53:33;;;;;;;;;;;7.20;79.30;;;5.03;55.41;95632.16;10422325;28;2052;-81
2021/04/26 05:58:36;;;;;;;;;;;6.10;78.30;;;5.28;54.59;95639.75;10423366;28;2040;-83
2021/04/26 06:03:38;;;;;;;;;;;6.30;77.60;;;5.55;53.64;95637.22;10427370;28;2012;-84
2021/04/26 06:08:39;;;;;;;;;;;6.50;76.90;;;5.43;54.08;95637.31;10422763;28;2721;-84
2021/04/26 06:13:41;;;;;;;;;;;6.60;76.80;;;5.60;53.76;95647.16;10424778;28;2027;-81
2021/04/26 06:18:44;;;;;;;;;;;7.10;77.00;;;6.06;52.30;95645.13;10425302;28;1988;-83
2021/04/26 06:23:46;;;;;;;;;;;6.90;75.80;;;5.80;52.71;95641.28;10401040;28;1855;-79
2021/04/26 06:28:48;;;;;;;;;;;6.90;75.20;;;6.38;51.60;95638.03;10417022;28;1924;-81
2021/04/26 06:33:50;;;;;;;;;;;7.20;75.20;;;6.61;51.06;95638.78;10423759;28;1957;-81
2021/04/26 06:38:58;;;;;;;;;;;7.90;74.50;;;6.65;50.46;95631.91;10396449;28;2004;-81
2021/04/26 06:44:09;;;;;;;;;;;8.80;74.10;;;7.10;49.89;95625.34;10445883;23;1876;-84
2021/04/26 06:49:15;;;;;;;;;;;7.90;73.20;;;7.04;48.90;95625.31;10392970;28;1946;-83
2021/04/26 06:54:20;;;;;;;;;;;9.90;72.60;;;7.56;47.19;95626.47;10441939;28;2038;-84
2021/04/26 06:59:35;;;;;;;;;;;8.40;71.20;;;7.67;46.78;95638.06;10435087;28;1760;-84
2021/04/26 07:10:03;;;;;;;;;;;8.70;70.20;;;7.68;47.53;95639.66;10437816;28;2046;-83
2021/04/26 07:15:09;;;;;;;;;;;8.70;70.50;;;7.93;47.05;95642.50;10471110;28;2097;-83
2021/04/26 07:20:17;;;;;;;;;;;10.00;70.40;;;7.85;48.11;95633.09;10466700;28;1995;-83
2021/04/26 07:25:19;;;;;;;;;;;8.90;70.40;;;7.77;47.60;95635.47;10450147;28;1901;-84
2021/04/26 07:30:25;;;;;;;;;;;10.10;70.70;;;8.04;46.84;95638.81;10443401;28;1959;-83
2021/04/26 07:35:27;;;;;;;;;;;9.00;69.80;;;8.36;46.81;95625.31;10442547;28;1992;-84
2021/04/26 07:40:29;;;;;;;;;;;10.10;70.40;;;7.98;47.70;95628.34;10465882;28;1863;-85
2021/04/26 07:45:31;;;;;;;;;;;9.40;69.00;;;8.77;46.14;95635.31;10468646;28;1907;-84
2021/04/26 07:50:34;;;;;;;;;;;10.80;69.90;;;8.83;44.40;95629.69;10471166;28;1766;-85
2021/04/26 07:55:36;;;;;;;;;;;9.90;67.70;;;9.28;43.68;95646.09;10463766;28;2008;-84
2021/04/26 08:00:38;;;;;;;;;;;10.70;67.00;;;9.06;44.76;95633.75;10460213;28;2102;-85
2021/04/26 08:05:41;;;;;;;;;;;10.40;66.20;;;9.24;44.35;95634.31;10469439;28;1463;-85
2021/04/26 08:10:44;;;;;;;;;;;10.50;66.20;;;9.56;41.74;95631.34;10437444;28;1804;-84
2021/04/26 08:15:46;;;;;;;;;;;10.60;64.80;;;9.96;42.32;95623.22;10467051;28;2071;-85
2021/04/26 08:20:48;;;;;;;;;;;10.90;65.20;;;10.25;41.21;95628.00;10441663;28;2023;-82
2021/04/26 08:25:50;;;;;;;;;;;11.30;63.90;;;10.82;40.33;95622.06;10453202;28;2035;-84
2021/04/26 08:30:53;;;;;;;;;;;11.70;63.40;;;10.48;39.86;95615.78;10438939;28;1848;-84
2021/04/26 08:35:55;;;;;;;;;;;11.80;62.00;;;9.74;41.38;95622.75;10453652;28;1966;-84
2021/04/26 08:40:57;;;;;;;;;;;11.20;62.30;;;9.73;42.11;95624.63;10442889;28;1740;-85
2021/04/26 08:45:59;;;;;;;;;;;11.00;63.40;;;10.10;40.75;95610.00;10437399;28;2028;-85
2021/04/26 08:51:02;;;;;;;;;;;11.00;63.20;;;10.43;41.49;95619.31;10446631;28;2054;-84
2021/04/26 08:56:03;;;;;;;;;;;11.30;63.70;;;10.90;39.96;95623.34;10451917;28;1977;-87
2021/04/26 09:01:05;;;;;;;;;;;11.80;62.50;;;10.38;39.43;95615.84;10462044;28;1383;-83
2021/04/26 09:06:07;;;;;;;;;;;11.80;60.60;;;10.92;37.86;95615.00;10456996;28;2331;-85
2021/04/26 09:11:10;;;;;;;;;;;11.90;60.30;;;10.76;38.29;95617.78;10446168;28;1285;-80
2021/04/26 09:16:16;;;;;;;;;;;11.90;60.00;;;10.64;38.25;95621.91;10442849;28;2081;-80
2021/04/26 09:21:18;;;;;;;;;;;11.80;60.10;;;10.76;37.91;95607.03;10448094;28;2067;-83
2021/04/26 09:26:20;;;;;;;;;;;11.70;60.00;;;11.12;35.89;95617.53;10465313;28;1982;-82
2021/04/26 09:31:22;;;;;;;;;;;12.10;58.30;;;10.99;35.28;95605.53;10453999;28;1900;-82
2021/04/26 09:36:31;;;;;;;;;;;12.10;57.40;;;11.16;34.91;95615.91;10484686;28;1946;-83
2021/04/26 09:41:33;;;;;;;;;;;12.20;56.20;;;10.83;34.88;95599.47;10487603;28;1996;-84
2021/04/26 09:46:34;;;;;;;;;;;12.00;56.10;;;10.75;33.66;95586.63;10476204;28;2130;-82
2021/04/26 09:51:36;;;;;;;;;;;11.90;55.10;;;10.77;33.52;95597.88;10475741;28;1907;-85
2021/04/26 09:56:40;;;;;;;;;;;11.90;54.50;;;10.98;32.41;95597.75;10432498;28;2028;-86
2021/04/26 10:01:43;;;;;;;;;;;12.10;53.50;;;10.78;32.84;95594.09;10447397;28;1959;-86
2021/04/26 10:06:46;;;;;;;;;;;12.00;53.40;;;11.15;32.94;95586.59;10474447;28;2103;-84
2021/04/26 10:11:49;;;;;;;;;;;12.20;53.90;;;11.45;32.07;95574.75;10452926;28;2076;-79
2021/04/26 10:16:53;;;;;;;;;;;12.50;53.60;;;11.65;33.43;95574.56;10470302;28;1961;-83
2021/04/26 10:21:56;;;;;;;;;;;12.60;54.10;;;11.62;31.19;95570.53;10464778;28;1991;-85
2021/04/26 10:27:00;;;;;;;;;;;12.70;52.50;;;11.80;33.05;95560.94;10456420;28;1960;-80
2021/04/26 10:32:03;;;;;;;;;;;12.80;53.90;;;11.76;33.83;95565.28;10470657;28;1652;-85
2021/04/26 10:37:06;;;;;;;;;;;12.90;54.90;;;12.24;33.55;95554.53;10462417;28;2012;-84
2021/04/26 10:42:09;;;;;;;;;;;13.20;54.50;;;11.62;33.89;95553.59;10478756;28;1876;-85
2021/04/26 10:47:11;;;;;;;;;;;13.00;53.70;;;11.56;33.89;95544.75;10449322;28;1972;-85
2021/04/26 10:52:21;;;;;;;;;;;12.80;53.90;;;11.74;33.15;95545.13;10439181;28;1844;-81
2021/04/26 10:57:24;;;;;;;;;;;12.90;54.10;;;11.92;32.13;95532.84;10448166;28;2035;-81
2021/04/26 11:02:26;;;;;;;;;;;12.90;53.20;;;12.22;30.58;95523.56;10462996;28;1963;-82
2021/04/26 11:07:28;;;;;;;;;;;13.20;52.10;;;12.79;30.29;95511.69;10447146;28;1673;-85
2021/04/26 11:12:30;;;;;;;;;;;13.70;51.40;;;12.70;30.39;95499.94;10446298;28;2062;-82
2021/04/26 11:17:32;;;;;;;;;;;14.00;51.20;;;12.32;30.77;95502.66;10452298;28;2008;-83
2021/04/26 11:22:34;;;;;;;;;;;13.60;50.80;;;11.93;29.48;95497.53;10440908;28;2354;-83
2021/04/26 11:27:36;;;;;;;;;;;13.10;50.00;;;11.79;31.13;95510.06;10478702;28;1981;-84
2021/04/26 11:32:38;;;;;;;;;;;13.00;50.80;;;11.63;30.60;95501.34;10447410;28;2253;-83
2021/04/26 11:37:40;;;;;;;;;;;12.80;50.70;;;11.92;30.10;95492.44;10464933;28;2012;-82
2021/04/26 11:42:42;;;;;;;;;;;13.00;50.50;;;12.08;28.97;95493.81;10477735;28;1868;-83
2021/04/26 11:47:44;;;;;;;;;;;13.10;49.70;;;12.05;29.11;95475.56;10461929;28;1909;-86
2021/04/26 11:52:46;;;;;;;;;;;13.10;50.00;;;12.34;28.24;95470.84;10451661;28;2018;-84
2021/04/26 11:57:48;;;;;;;;;;;13.30;48.40;;;12.64;27.76;95461.47;10452650;28;1916;-85
2021/04/26 12:02:50;;;;;;;;;;;13.50;48.40;;;12.81;27.67;95460.94;10454052;28;2048;-84
2021/04/26 12:07:52;;;;;;;;;;;13.80;47.60;;;12.64;25.52;95457.97;10456497;28;2012;-85
2021/04/26 12:12:54;;;;;;;;;;;13.80;46.10;;;13.03;26.30;95446.81;10452139;28;1964;-85
2021/04/26 12:17:55;;;;;;;;;;;13.90;46.80;;;12.77;26.53;95449.13;10480474;28;1884;-82
2021/04/26 12:22:57;;;;;;;;;;;13.80;46.70;;;13.23;26.68;95437.56;10471413;28;2065;-85
2021/04/26 12:28:02;;;;;;;;;;;14.10;46.90;;;13.50;26.13;95434.09;10466087;28;2137;-86
2021/04/26 12:33:04;;;;;;;;;;;14.30;46.40;;;13.01;24.83;95442.81;10462587;28;1971;-84
2021/04/26 12:38:05;;;;;;;;;;;14.30;44.60;;;13.12;24.29;95433.44;10442121;28;1925;-83
2021/04/26 12:43:07;;;;;;;;;;;14.20;44.00;;;13.18;23.40;95419.56;10471805;28;2035;-85
2021/04/26 12:48:09;;;;;;;;;;;14.20;43.50;;;13.50;21.98;95413.31;10465864;28;2092;-84
2021/04/26 12:53:11;;;;;;;;;;;14.50;42.20;;;13.58;24.47;95408.28;10453710;28;2006;-85
2021/04/26 12:58:13;;;;;;;;;;;14.50;44.30;;;13.45;24.83;95394.50;10451795;28;2027;-83
2021/04/26 13:03:15;;;;;;;;;;;14.50;45.10;;;13.35;25.76;95389.28;10466733;28;2125;-82
2021/04/26 13:08:17;;;;;;;;;;;14.40;45.80;;;13.88;25.70;95385.25;10458476;28;2141;-85
2021/04/26 13:13:19;;;;;;;;;;;14.80;45.90;;;13.46;25.03;95379.88;10475116;28;2012;-82
2021/04/26 13:18:21;;;;;;;;;;;14.60;44.90;;;13.51;24.13;95360.91;10460187;28;2369;-84
2021/04/26 13:23:23;;;;;;;;;;;14.60;44.10;;;13.89;23.36;95357.91;10438087;28;2052;-84
2021/04/26 13:28:25;;;;;;;;;;;14.90;43.70;;;13.61;23.97;95356.38;10469999;28;2078;-86
2021/04/26 13:33:27;;;;;;;;;;;14.90;42.80;;;13.83;23.97;95350.25;10442629;28;1957;-83
2021/04/26 13:38:31;;;;;;;;;;;14.80;43.80;;;13.71;22.83;95345.34;10461079;28;1968;-84
2021/04/26 13:43:33;;;;;;;;;;;14.80;41.90;;;14.27;23.12;95327.88;10461947;28;2039;-87
2021/04/26 13:48:34;;;;;;;;;;;15.10;43.10;;;14.40;26.04;95337.00;10454527;28;2358;-83
2021/04/26 13:53:36;;;;;;;;;;;15.50;45.70;;;14.06;26.05;95324.84;10450235;28;2080;-83
2021/04/26 13:58:38;;;;;;;;;;;15.50;45.30;;;13.73;26.77;95316.94;10450739;28;2151;-84
2021/04/26 14:03:43;;;;;;;;;;;15.10;45.50;;;13.73;26.25;95308.03;10456728;28;2016;-86
2021/04/26 14:08:46;;;;;;;;;;;14.80;45.70;;;13.83;25.45;95293.50;10450509;28;2013;-84
2021/04/26 14:13:48;;;;;;;;;;;14.80;45.20;;;14.09;24.57;95288.28;10459090;28;2020;-83
2021/04/26 14:18:51;;;;;;;;;;;15.00;44.40;;;13.85;26.08;95294.78;10439819;28;1960;-84
2021/04/26 14:23:54;;;;;;;;;;;14.90;45.10;;;13.95;24.46;95280.25;10501244;28;2021;-83
2021/04/26 14:28:57;;;;;;;;;;;15.00;44.30;;;14.17;23.77;95274.03;10458460;28;2072;-85
2021/04/26 14:34:11;;;;;;;;;;;;;;;;;;;;;
2021/04/26 14:39:24;;;;;;;;;;;15.30;43.20;;;14.05;23.07;95261.88;10457704;28;1319;-84
2021/04/26 14:44:29;;;;;;;;;;;15.10;42.30;;;13.99;23.33;95244.19;10449503;28;1960;-83
2021/04/26 14:55:14;;;;;;;;;;;15.10;42.70;;;14.24;24.53;95220.31;10455103;28;2099;-84
2021/04/26 15:00:16;;;;;;;;;;;15.30;43.60;;;14.30;24.16;95221.78;10447464;28;2016;-84
2021/04/26 15:05:26;;;;;;;;;;;15.40;43.60;;;14.44;22.13;95219.00;10476096;28;1883;-84
2021/04/26 15:11:10;;;;;;;;;;;15.50;41.50;;;14.05;24.04;95212.44;10429675;28;2059;-82
2021/04/26 15:16:12;;;;;;;;;;;15.20;43.00;;;14.05;24.64;95204.31;10465333;28;2061;-83
2021/04/26 15:21:14;;;;;;;;;;;15.00;43.90;;;14.55;22.25;95204.91;10477225;28;1998;-85
2021/04/26 15:26:15;;;;;;;;;;;15.30;42.10;;;14.17;24.60;95201.84;10474608;28;1794;-83
2021/04/26 15:31:17;;;;;;;;;;;15.30;43.30;;;13.91;24.04;95201.69;10470024;28;2023;-84
2021/04/26 15:36:19;;;;;;;;;;;15.20;42.90;;;13.59;23.63;95193.84;10447612;28;1911;-86
2021/04/26 15:41:23;;;;;;;;;;;14.80;42.70;;;13.48;25.84;95196.78;10441803;28;2020;-84
2021/04/26 15:46:25;;;;;;;;;;;14.60;44.30;;;13.58;25.92;95186.84;10469056;28;2319;-84
2021/04/26 15:51:33;;;;;;;;;;;14.60;44.70;;;13.69;24.84;95185.50;10462402;28;2020;-85
2021/04/26 15:56:35;;;;;;;;;;;14.70;44.40;;;13.38;24.83;95177.34;10469869;28;1894;-82
2021/04/26 16:01:37;;;;;;;;;;;14.50;44.00;;;13.31;24.19;95164.25;10469297;28;1816;-84
2021/04/26 16:06:39;;;;;;;;;;;14.40;43.70;;;13.08;24.23;95146.41;10489222;28;1951;-81
2021/04/26 16:11:41;;;;;;;;;;;14.30;43.60;;;12.86;24.66;95156.06;10480845;28;1990;-84
2021/04/26 16:16:43;;;;;;;;;;;14.00;43.20;;;12.85;25.09;95148.25;10473582;28;2395;-83
2021/04/26 16:21:45;;;;;;;;;;;13.90;44.40;;;12.87;26.32;95149.56;10469948;28;2008;-84
2021/04/26 16:26:46;;;;;;;;;;;13.80;45.40;;;12.74;24.92;95141.50;10482879;28;2055;-84
2021/04/26 16:31:48;;;;;;;;;;;13.80;43.90;;;12.64;25.10;95132.50;10461668;28;2117;-85
2021/04/26 16:37:10;;;;;;;;;;;13.70;44.30;;;12.53;26.67;95120.34;10487265;28;1956;-83
2021/04/26 16:42:14;;;;;;;;;;;13.60;45.60;;;12.51;28.20;95127.13;10479213;28;1946;-82
2021/04/26 16:47:21;;;;;;;;;;;13.50;47.10;;;12.44;28.81;95106.78;10461691;28;2383;-84
2021/04/26 16:52:23;;;;;;;;;;;13.50;47.90;;;12.35;28.55;95105.91;10445168;28;2245;-84
2021/04/26 16:57:26;;;;;;;;;;;13.40;47.10;;;12.35;28.32;95113.19;10461565;28;2042;-83
2021/04/26 17:02:28;;;;;;;;;;;13.30;47.70;;;12.26;28.00;95115.75;10451604;28;2221;-84
2021/04/26 17:07:30;;;;;;;;;;;13.30;47.20;;;12.23;27.64;95116.38;10462153;28;2035;-84
2021/04/26 17:12:32;;;;;;;;;;;13.20;47.00;;;12.16;27.94;95113.28;10459201;28;2026;-79
2021/04/26 17:17:34;;;;;;;;;;;13.20;46.90;;;12.06;28.72;95108.09;10477966;28;1982;-83
2021/04/26 17:22:36;;;;;;;;;;;13.10;47.90;;;12.01;28.12;95118.94;10457441;28;2016;-84
2021/04/26 17:27:39;;;;;;;;;;;13.00;47.50;;;11.86;28.75;95123.53;10461975;28;2259;-83
2021/04/26 17:32:41;;;;;;;;;;;12.90;48.20;;;11.87;29.49;95133.19;10455341;28;2094;-84
2021/04/26 17:37:43;;;;;;;;;;;12.80;48.40;;;11.67;29.59;95136.22;10453067;28;2035;-81
2021/04/26 17:42:45;;;;;;;;;;;12.70;48.50;;;11.67;28.59;95135.44;10467501;28;2395;-85
2021/04/26 17:47:47;;;;;;;;;;;12.70;47.80;;;11.60;28.76;95150.06;10475434;28;1936;-83
2021/04/26 17:52:52;;;;;;;;;;;12.60;48.20;;;11.51;29.05;95148.34;10478465;28;2099;-79
2021/04/26 17:57:54;;;;;;;;;;;12.50;48.50;;;11.39;29.61;95143.44;10487839;28;1981;-84
2021/04/26 18:02:56;;;;;;;;;;;12.40;48.80;;;11.31;30.05;95152.16;10479619;28;1792;-82
2021/04/26 18:08:01;;;;;;;;;;;12.30;48.90;;;11.12;30.10;95154.06;10475947;28;1874;-81
2021/04/26 18:13:03;;;;;;;;;;;12.20;49.10;;;11.00;30.44;95160.66;10488160;28;2097;-83
2021/04/26 18:18:05;;;;;;;;;;;12.00;49.40;;;10.93;30.64;95154.06;10484897;28;1743;-85
2021/04/26 18:23:07;;;;;;;;;;;12.00;49.60;;;10.85;30.39;95162.78;10457009;28;2067;-85
2021/04/26 18:28:09;;;;;;;;;;;11.80;49.40;;;10.74;30.23;95165.59;10462993;28;1948;-84
2021/04/26 18:33:17;;;;;;;;;;;11.80;49.40;;;10.60;30.73;95170.09;10478858;28;1976;-83
2021/04/26 18:38:20;;;;;;;;;;;11.60;49.60;;;10.45;30.88;95189.09;10466515;28;1960;-82
2021/04/26 18:43:22;;;;;;;;;;;11.60;49.90;;;10.36;30.84;95183.53;10463624;28;1876;-82
2021/04/26 18:48:26;;;;;;;;;;;11.40;49.70;;;10.28;31.04;95184.97;10456975;28;2154;-85
2021/04/26 18:53:29;;;;;;;;;;;11.30;50.20;;;10.06;31.73;95192.72;10485243;28;1919;-84
2021/04/26 18:58:38;;;;;;;;;;;11.20;50.60;;;9.90;32.28;95199.31;10480721;28;1515;-84
2021/04/26 19:03:42;;;;;;;;;;;11.00;51.00;;;9.86;32.42;95209.00;10503879;28;1562;-84
2021/04/26 19:08:48;;;;;;;;;;;10.90;51.20;;;9.87;32.39;95202.56;10499351;28;1549;-83
2021/04/26 19:13:51;;;;;;;;;;;10.90;51.20;;;9.74;32.50;95206.72;10478419;28;1887;-84
2021/04/26 19:18:58;;;;;;;;;;;10.80;51.30;;;9.50;34.29;95214.66;10487420;28;1253;-84
2021/04/26 19:24:02;;;;;;;;;;;10.60;52.40;;;9.63;32.81;95215.91;10479087;28;1522;-87
2021/04/26 19:29:04;;;;;;;;;;;10.60;52.10;;;9.44;33.86;95207.75;10464790;28;1362;-85
2021/04/26 19:34:06;;;;;;;;;;;10.50;52.50;;;9.42;34.49;95209.91;10448289;28;1910;-86
2021/04/26 19:39:10;;;;;;;;;;;10.50;52.80;;;9.38;35.25;95222.28;10456432;28;2022;-84
2021/04/26 19:44:19;;;;;;;;;;;10.40;53.80;;;9.19;35.71;95211.41;10472726;28;2086;-83
2021/04/26 19:49:22;;;;;;;;;;;10.30;54.40;;;9.05;36.74;95219.25;10472752;28;1653;-84
2021/04/26 19:54:24;;;;;;;;;;;10.20;55.30;;;8.78;37.35;95203.59;10493308;28;1890;-82
2021/04/26 19:59:26;;;;;;;;;;;10.00;55.80;;;8.66;38.31;95205.81;10481589;28;2059;-78
2021/04/26 20:04:27;;;;;;;;;;;9.80;56.80;;;8.58;38.71;95207.16;10459211;28;2230;-78
2021/04/26 20:09:29;;;;;;;;;;;11.00;58.10;;;8.48;39.18;95201.84;10458581;28;2106;-78
2021/04/26 20:14:31;;;;;;;;;;;9.50;58.10;;;8.32;39.74;95200.25;10475310;28;2071;-80
2021/04/26 20:19:33;;;;;;;;;;;9.40;58.40;;;8.13;41.00;95203.53;10462156;28;2075;-83
2021/04/26 20:24:36;;;;;;;;;;;9.30;59.30;;;8.12;41.23;95201.94;10435670;28;1971;-78
2021/04/26 20:29:37;;;;;;;;;;;9.20;59.70;;;8.08;41.95;95195.53;10430865;28;2153;-83
2021/04/26 20:34:40;;;;;;;;;;;9.20;60.20;;;7.95;42.06;95188.06;10451205;28;2234;-85
2021/04/26 20:39:42;;;;;;;;;;;9.80;61.00;;;7.80;43.05;95185.41;10438679;28;1998;-84
2021/04/26 20:44:44;;;;;;;;;;;8.90;61.60;;;7.69;43.68;95179.25;10464746;28;1837;-85
2021/04/26 20:49:46;;;;;;;;;;;8.80;62.40;;;7.68;44.20;95166.16;10440833;28;1860;-84
2021/04/26 20:54:47;;;;;;;;;;;9.70;63.80;;;7.68;44.69;95163.47;10464991;28;1987;-86
2021/04/26 20:59:50;;;;;;;;;;;9.20;63.80;;;7.64;44.92;95157.09;10449804;28;2076;-87
2021/04/26 21:04:52;;;;;;;;;;;8.70;63.90;;;7.61;44.98;95162.94;10464747;28;2089;-87
2021/04/26 21:09:55;;;;;;;;;;;8.60;64.40;;;7.63;44.27;95155.44;10439062;28;1896;-86
2021/04/26 21:14:57;;;;;;;;;;;9.30;64.80;;;7.55;44.82;95144.22;10438902;28;1988;-88
2021/04/26 21:19:59;;;;;;;;;;;9.80;64.80;;;7.45;44.11;95144.25;10450267;28;1807;-86
2021/04/26 21:25:02;;;;;;;;;;;9.90;64.80;;;7.34;44.16;95139.97;10438178;28;1824;-86
2021/04/26 21:30:04;;;;;;;;;;;8.40;63.60;;;7.21;43.81;95135.19;10448897;28;1597;-87
2021/04/26 21:35:06;;;;;;;;;;;8.20;63.40;;;7.14;44.63;95132.78;10455639;28;1987;-86
2021/04/26 21:40:08;;;;;;;;;;;8.20;63.70;;;6.96;44.96;95126.09;10452575;28;2001;-87
2021/04/26 21:45:10;;;;;;;;;;;8.10;64.30;;;6.84;45.46;95114.84;10440743;28;1841;-86
2021/04/26 21:50:12;;;;;;;;;;;7.90;64.70;;;6.70;46.20;95119.09;10439516;28;1842;-88
2021/04/26 21:55:15;;;;;;;;;;;7.80;65.40;;;6.64;46.41;95120.97;10439540;28;1894;-86
2021/04/26 22:00:17;;;;;;;;;;;7.70;65.80;;;6.59;46.54;95115.59;10459209;28;1419;-86
2021/04/26 22:05:20;;;;;;;;;;;8.00;66.20;;;6.51;45.68;95110.78;10453534;28;1913;-86
2021/04/26 22:10:43;;;;;;;;;;;8.70;66.20;;;6.50;45.49;95110.00;10476924;28;1997;-86
2021/04/26 22:16:05;;;;;;;;;;;8.30;65.50;;;6.44;44.81;95103.03;10489239;28;1983;-87
2021/04/26 22:21:27;;;;;;;;;;;7.50;64.80;;;6.33;45.00;95096.06;10465937;28;2226;-87
2021/04/26 22:26:49;;;;;;;;;;;7.40;64.70;;;6.20;45.59;95096.56;10477928;28;2041;-85
2021/04/26 22:32:11;;;;;;;;;;;7.30;65.30;;;6.13;45.67;95096.00;10477555;28;1704;-87
2021/04/26 22:37:19;;;;;;;;;;;7.20;65.10;;;6.07;45.54;95102.38;10451777;28;2004;-87
2021/04/26 22:42:21;;;;;;;;;;;7.10;65.40;;;6.05;45.63;95093.84;10469196;28;1824;-85
2021/04/26 22:47:23;;;;;;;;;;;7.00;65.40;;;5.95;46.49;95089.25;10449142;28;1777;-85
2021/04/26 22:52:25;;;;;;;;;;;7.00;65.70;;;5.83;46.23;95080.66;10454583;28;1884;-87
2021/04/26 22:57:27;;;;;;;;;;;6.90;65.90;;;5.80;46.71;95075.84;10447662;28;2004;-85
2021/04/26 23:02:28;;;;;;;;;;;8.10;67.00;;;5.72;46.85;95079.78;10475379;28;1900;-87
2021/04/26 23:07:30;;;;;;;;;;;6.80;66.40;;;5.59;47.07;95074.94;10466627;28;1680;-85
2021/04/26 23:12:32;;;;;;;;;;;6.70;66.70;;;5.60;47.11;95074.69;10474541;28;1872;-85
2021/04/26 23:17:34;;;;;;;;;;;6.90;67.10;;;5.56;47.17;95070.13;10468813;28;1983;-87
2021/04/26 23:22:36;;;;;;;;;;;7.70;67.70;;;5.55;47.11;95065.84;10452346;28;1761;-86
2021/04/26 23:27:40;;;;;;;;;;;6.60;67.40;;;5.40;48.04;95050.56;10466264;28;1917;-84
2021/04/26 23:32:42;;;;;;;;;;;6.50;67.80;;;5.36;47.98;95044.97;10481518;28;1657;-84
2021/04/26 23:37:44;;;;;;;;;;;6.40;67.70;;;5.32;48.18;95040.41;10456194;28;2030;-85
2021/04/26 23:42:45;;;;;;;;;;;6.30;67.90;;;5.20;48.62;95037.94;10459597;28;1656;-86